AirNav   Phillips 66 Aviation Fuel
 
 488 users online  

28KY Brandon Airdrome
Murray, Kentucky, USA

GOING TO MURRAY?


FAA INFORMATION EFFECTIVE 13 SEPTEMBER 2018

Location

FAA Identifier: 28KY
Lat/Long: 36-34-33.2000N / 088-18-48.1410W
36-34.553333N / 088-18.802350W
36.5758889 / -88.3133725
(estimated)
Elevation: 525 ft. / 160 m (estimated)
Variation: 01E (1985)
From city: 1 mile S of MURRAY, KY
Time zone: UTC -5 (UTC -6 during Standard Time)
Zip code: 42071

Airport Operations

Airport use: Private use. Permission required prior to landing
Activation date: 06/1978
Control tower: no
ARTCC: MEMPHIS CENTER
FSS: LOUISVILLE FLIGHT SERVICE STATION
Attendance: UNATNDD
Wind indicator: yes
Segmented circle: no

Airport Communications

WX AWOS-3 at CEY (6 nm NW): 119.975 (270-489-2424)
WX AWOS-3 at PHT (15 nm S): 118.825 (731-644-0451)
WX AWOS-3 at M25 (17 nm NW): 120.625 (270-247-2094)

Nearby radio navigation aids

VOR radial/distance  VOR name  Freq  Var
CNGr133/36.2CUNNINGHAM VOR/DME113.1003E

 
NDB name  Hdg/Dist  Freq  Var  ID
TRAINER014/20.241000ETIQ - .. --.-
HUNTINGDON016/30.221702WHZD .... --.. -..

Airport Services

Runway Information

Runway 1/19

Dimensions: 2100 x 80 ft. / 640 x 24 m
Surface: turf
RUNWAY 1  RUNWAY 19
Traffic pattern: leftleft

Airport Ownership and Management from official FAA records

Ownership: Privately-owned
Owner: H. BRANDON
701 SOUTH 12TH ST
MURRAY, KY 42071
Phone 270-753-4389
CELL- 270-293-8885
Manager: H. BRANDON
701 SOUTH 12TH ST
MURRAY, KY 42071
Phone 270-753-4389

Airport Operational Statistics

Aircraft based on the field: 90
Single engine airplanes: 90
    

Instrument Procedures

There are no published instrument procedures at 28KY.

Some nearby airports with instrument procedures:

KCEY - Kyle-Oakley Field Airport (6 nm NW)
KPHT - Henry County Airport (15 nm S)
M25 - Mayfield Graves County Airport (17 nm NW)
KHZD - Carroll County Airport (30 nm S)
KUCY - Everett-Stewart Regional Airport (35 nm W)
 
Loc | Ops | Rwys | IFR | FBO | Links
Com | Nav | Svcs | Stats | Notes


 
Area around 28KY (Brandon Airdrome)
 
Road maps at: MapQuest Bing Google
 
Aerial photo
No photo
 
Sectional chart

 
Airport distance calculator
Flying to Brandon Airdrome? Find the distance to fly.

From to 28KY

Sunrise and sunset
Times for 24-Sep-2018
 Local
(UTC-5)
 Zulu
(UTC)
Morning civil twilight06:1811:18
Sunrise06:4411:44
Sunset18:4723:47
Evening civil twilight19:1300:13

Current date and time
Zulu (UTC)  24-Sep-2018 05:12:17
Local (UTC-5)  24-Sep-2018 00:12:17
 
METAR
KCEY 
6nm NW 
240455Z AUTO 13004KT 2SM BKN003 OVC009 20/20 A3000 RMK AO1 P0014
KPHT 
15nm S 
240455Z AUTO 16007KT 3SM BR FEW003 BKN007 OVC017 22/21 A3000 RMK A01 P0034
KM25 
17nm NW 
240455Z AUTO 00000KT 5SM OVC010 20/20 A3001 RMK AO2 P0003 PWINO
TAF
KPAH 
37nm NW 
232023Z 2320/2418 07007KT P6SM VCSH OVC015 FM232200 08006KT 5SM -SHRA BR OVC010 FM240400 12005KT 3SM -SHRA BR OVC004 FM241400 15008KT 4SM -SHRA BR OVC005
KHOP 
40nm E 
240029Z 2400/2506 05009KT 9000 -RA BKN003 OVC013 QNH2998INS BECMG 2401/2402 07006KT 9000 -RA SCT009 OVC010 QNH2996INS BECMG 2402/2404 07006KT 9000 -RA BKN005 OVC010 QNH2994INS BECMG 2410/2411 10009KT 8000 -RA OVC009 QNH2997INS BECMG 2412/2414 15009KT 6000 -RA SCT009 OVC015 QNH2994INS BECMG 2418/2419 16012KT 9999 NSW OVC015 QNH2992INS WND 18006KT AFT 2423 TX23/2420Z TN17/2410Z
KCKV 
43nm E 
240335Z 2404/2424 12005KT 6SM -SHRA BR BKN005 OVC020 TEMPO 2404/2406 2SM BR SCT005 OVC020 FM240600 14007KT 2SM SHRA BR OVC005 FM241800 16007KT 5SM SHRA BR OVC012 TEMPO 2418/2422 2SM +TSRA BR OVC004CB
NOTAMs
Click for the latest NOTAMs
NOTAMs are issued by the DoD/FAA and will open in a separate window not controlled by AirNav.

 

 
 

Would you like to see your business listed on this page?

 If your business provides an interesting product or service to pilots, flight crews, aircraft, or users of the Brandon Airdrome, you should consider listing it here.  To start the listing process, click on the button below
 
Add a business
 

Other Pages about Brandon Airdrome

Update a link
 
Copyright © AirNav, LLC. All rights reserved. Privacy Policy  Contact